Time;durP1;ratioP1;P1;durP2;ratioP2;P2;SDS_P1;SDS_P2;PMS_P1;PMS_P2;Temp;Humidity;BMP_temperature;BMP_pressure;BME280_temperature;BME280_humidity;BME280_pressure;Samples;Min_cycle;Max_cycle;Signal;HPM_P1;HPM_P2
2024/04/12 00:01:09;;;;;;;4.00;2.80;;;;;;;12.16;70.18;102539.83;108661;1260;66364;-64
2024/04/12 00:03:52;;;;;;;8.60;4.50;;;;;;;12.27;70.33;102542.11;108598;1260;138103;-64
2024/04/12 00:06:20;;;;;;;8.00;4.30;;;;;;;12.36;70.30;102537.80;108702;1260;59975;-65
2024/04/12 00:08:47;;;;;;;6.10;3.20;;;;;;;12.43;70.35;102534.74;108810;1260;60244;-64
2024/04/12 00:11:20;;;;;;;9.00;3.70;;;;;;;12.49;70.30;102533.25;108624;1260;138019;-64
2024/04/12 00:13:52;;;;;;;7.00;3.90;;;;;;;12.54;70.37;102538.59;108806;1260;66234;-65
2024/04/12 00:16:24;;;;;;;5.40;2.90;;;;;;;12.59;70.46;102536.36;108625;1260;140422;-64
2024/04/12 00:19:07;;;;;;;5.60;2.80;;;;;;;12.66;70.53;102531.72;108777;1260;59796;-64
2024/04/12 00:21:37;;;;;;;5.50;2.80;;;;;;;12.69;70.66;102524.12;108791;1260;60029;-64
2024/04/12 00:24:10;;;;;;;17.10;8.90;;;;;;;12.72;70.56;102525.70;108694;1261;139451;-64
2024/04/12 00:26:43;;;;;;;13.80;8.50;;;;;;;12.78;70.68;102525.74;108771;1260;65160;-65
2024/04/12 00:29:25;;;;;;;9.00;4.80;;;;;;;12.85;70.79;102518.48;108601;1260;140155;-63
2024/04/12 00:31:55;;;;;;;5.60;2.80;;;;;;;12.91;70.75;102511.54;108812;1263;59819;-65
2024/04/12 00:34:26;;;;;;;5.20;3.40;;;;;;;12.96;70.61;102509.45;108697;1260;138884;-64
2024/04/12 00:37:06;;;;;;;5.60;2.50;;;;;;;12.98;70.61;102507.27;108804;1260;74280;-64
2024/04/12 00:39:39;;;;;;;7.20;2.50;;;;;;;13.01;70.69;102505.98;108800;1260;64957;-64
2024/04/12 00:42:09;;;;;;;5.50;3.00;;;;;;;13.04;70.57;102505.55;108728;1260;138742;-64
2024/04/12 00:44:38;;;;;;;7.00;2.60;;;;;;;13.07;70.77;102499.54;108775;1260;63357;-65
2024/04/12 00:47:10;;;;;;;6.20;3.80;;;;;;;13.12;70.71;102498.31;108687;1260;138707;-65
2024/04/12 00:49:49;;;;;;;5.80;2.90;;;;;;;13.17;70.70;102496.26;108784;1260;75665;-65
2024/04/12 00:52:22;;;;;;;5.50;2.50;;;;;;;13.23;70.77;102496.88;108692;1259;139055;-64
2024/04/12 00:55:08;;;;;;;4.50;2.60;;;;;;;13.29;70.86;102499.58;108750;1263;71682;-64
2024/04/12 00:57:36;;;;;;;3.20;2.50;;;;;;;13.33;70.78;102503.85;108764;1260;59666;-65
2024/04/12 01:00:08;;;;;;;3.10;2.50;;;;;;;13.38;70.79;102504.60;108717;1260;138908;-65
2024/04/12 01:02:41;;;;;;;3.70;2.60;;;;;;;13.43;70.83;102503.36;108809;1260;74306;-65
2024/04/12 01:05:12;;;;;;;3.90;2.60;;;;;;;13.47;70.79;102498.73;108665;1260;138439;-64
2024/04/12 01:07:39;;;;;;;3.40;2.60;;;;;;;13.48;70.74;102491.05;108685;1260;73627;-64
2024/04/12 01:10:11;;;;;;;4.20;3.10;;;;;;;13.50;70.66;102486.20;108647;1260;138579;-65
2024/04/12 01:12:38;;;;;;;4.40;2.90;;;;;;;13.52;70.77;102485.55;108782;1260;60461;-62
2024/04/12 01:15:07;;;;;;;4.90;3.40;;;;;;;13.52;70.78;102483.10;108779;1260;76527;-63
2024/04/12 01:17:37;;;;;;;8.30;3.20;;;;;;;13.53;70.78;102478.38;108689;1260;138532;-64
2024/04/12 01:20:05;;;;;;;6.20;2.90;;;;;;;13.55;70.78;102474.21;108802;1260;71962;-63
2024/04/12 01:22:31;;;;;;;4.90;3.00;;;;;;;13.57;70.81;102469.00;108673;1260;139028;-64
2024/04/12 01:24:58;;;;;;;6.90;3.50;;;;;;;13.59;70.82;102468.59;108722;1260;61367;-64
2024/04/12 01:27:25;;;;;;;5.30;3.00;;;;;;;13.63;70.75;102464.46;108788;1264;75595;-65
2024/04/12 01:29:51;;;;;;;5.00;3.40;;;;;;;13.65;70.83;102461.55;108732;1260;138960;-65
2024/04/12 01:32:18;;;;;;;5.70;3.70;;;;;;;13.65;70.80;102463.50;108799;1260;73790;-65
2024/04/12 01:34:50;;;;;;;4.30;3.50;;;;;;;13.67;70.74;102463.92;108690;1260;139558;-66
2024/04/12 01:37:20;;;;;;;6.50;3.50;;;;;;;13.68;70.88;102468.05;108789;1260;61639;-66
2024/04/12 01:39:48;;;;;;;6.30;4.10;;;;;;;13.70;70.79;102471.83;108816;1260;75327;-66
2024/04/12 01:42:16;;;;;;;5.10;3.60;;;;;;;13.72;70.72;102470.64;108854;1260;66468;-66
2024/04/12 01:45:13;;;;;;;5.50;4.00;;;;;;;13.72;70.81;102471.89;108773;1260;72897;-65
2024/04/12 01:47:34;;;;;;;6.60;4.00;;;;;;;13.71;70.67;102469.58;108690;1260;138127;-66
2024/04/12 01:50:07;;;;;;;6.40;4.00;;;;;;;13.72;70.80;102471.38;108708;1260;60050;-66
2024/04/12 01:52:50;;;;;;;8.70;4.20;;;;;;;13.72;70.85;102473.65;108687;1261;139281;-65
2024/04/12 01:55:18;;;;;;;4.90;3.90;;;;;;;13.72;70.81;102474.71;108811;1260;66791;-66
2024/04/12 01:58:00;;;;;;;6.10;4.10;;;;;;;13.72;70.82;102472.77;108795;1260;70770;-66
2024/04/12 02:00:27;;;;;;;6.40;4.20;;;;;;;13.74;70.83;102479.92;108786;1261;60780;-65
2024/04/12 02:02:59;;;;;;;7.00;4.00;;;;;;;13.74;70.73;102486.65;108848;1259;60476;-65
2024/04/12 02:05:32;;;;;;;4.80;4.30;;;;;;;13.75;70.79;102490.55;108708;1261;138882;-66
2024/04/12 02:08:10;;;;;;;8.60;4.30;;;;;;;13.76;70.84;102487.77;108781;1263;67531;-65
2024/04/12 02:10:43;;;;;;;6.90;4.40;;;;;;;13.78;70.81;102485.38;108507;1265;142890;-65
2024/04/12 02:13:16;;;;;;;6.70;4.30;;;;;;;13.80;70.82;102479.64;108701;1260;60336;-65
2024/04/12 02:15:45;;;;;;;7.10;4.40;;;;;;;13.81;70.74;102480.56;108831;1260;60011;-64
2024/04/12 02:18:13;;;;;;;5.80;3.90;;;;;;;13.83;70.81;102478.16;108740;1260;138791;-64
2024/04/12 02:20:44;;;;;;;8.70;4.20;;;;;;;13.83;70.65;102481.34;108790;1260;64527;-64
2024/04/12 02:23:13;;;;;;;4.80;4.00;;;;;;;13.83;70.72;102482.02;108648;1260;137837;-64
2024/04/12 02:25:40;;;;;;;6.90;4.30;;;;;;;13.82;70.73;102486.94;108797;1265;60101;-64
2024/04/12 02:28:09;;;;;;;8.80;4.60;;;;;;;13.82;70.73;102488.35;108692;1260;140403;-64
2024/04/12 02:30:41;;;;;;;6.30;4.20;;;;;;;13.82;70.74;102492.23;108591;1260;242575;-64
2024/04/12 02:33:14;;;;;;;6.20;4.20;;;;;;;13.81;70.76;102493.96;108829;1260;66158;-64
2024/04/12 02:35:41;;;;;;;6.90;4.70;;;;;;;13.79;70.68;102492.15;108648;1265;138941;-64
2024/04/12 02:38:10;;;;;;;5.00;4.30;;;;;;;13.81;70.78;102493.59;108659;1260;60157;-64
2024/04/12 02:40:41;;;;;;;8.90;4.20;;;;;;;13.81;70.71;102493.27;108664;1261;140258;-64
2024/04/12 02:43:10;;;;;;;5.30;3.80;;;;;;;13.82;70.74;102492.23;108821;1260;75430;-64
2024/04/12 02:45:36;;;;;;;8.30;4.40;;;;;;;13.82;70.76;102488.36;108765;1260;67458;-64
2024/04/12 02:48:03;;;;;;;7.70;4.30;;;;;;;13.83;70.70;102490.33;108688;1260;138727;-65
2024/04/12 02:50:30;;;;;;;9.20;4.80;;;;;;;13.84;70.70;102485.95;108782;1260;60104;-65
2024/04/12 02:52:57;;;;;;;6.20;3.90;;;;;;;13.84;70.70;102481.38;108690;1264;137995;-64
2024/04/12 02:55:30;;;;;;;5.40;4.10;;;;;;;13.85;70.77;102480.73;108837;1260;73502;-64
2024/04/12 02:57:57;;;;;;;6.60;4.30;;;;;;;13.85;70.74;102477.50;108672;1260;138437;-64
2024/04/12 03:00:25;;;;;;;6.30;4.00;;;;;;;13.86;70.70;102478.08;108835;1260;74044;-64
2024/04/12 03:02:52;;;;;;;5.30;3.70;;;;;;;13.86;70.77;102471.56;108747;1260;59704;-64
2024/04/12 03:05:19;;;;;;;5.50;4.00;;;;;;;13.84;70.63;102468.13;108594;1261;138808;-64
2024/04/12 03:07:46;;;;;;;5.70;4.10;;;;;;;13.83;70.64;102467.73;108785;1260;74204;-63
2024/04/12 03:10:18;;;;;;;6.50;4.10;;;;;;;13.82;70.75;102462.60;108687;1260;139743;-63
2024/04/12 03:12:51;;;;;;;4.70;3.30;;;;;;;13.83;70.74;102463.48;108809;1260;73418;-63
2024/04/12 03:15:19;;;;;;;5.50;4.10;;;;;;;13.84;70.69;102456.98;108802;1265;60625;-64
2024/04/12 03:17:48;;;;;;;7.60;3.70;;;;;;;13.84;70.65;102455.26;108635;1260;139433;-63
2024/04/12 03:20:15;;;;;;;7.80;3.90;;;;;;;13.85;70.71;102458.27;108790;1260;74676;-64
2024/04/12 03:22:43;;;;;;;6.10;4.40;;;;;;;13.86;70.65;102455.84;108582;1261;139234;-63
2024/04/12 03:25:09;;;;;;;7.40;3.90;;;;;;;13.87;70.71;102458.34;108785;1260;70668;-64
2024/04/12 03:27:38;;;;;;;6.70;4.20;;;;;;;13.86;70.67;102456.92;108799;1260;60337;-64
2024/04/12 03:30:13;;;;;;;5.10;3.90;;;;;;;13.87;70.67;102455.39;108625;1260;138054;-63
2024/04/12 03:32:46;;;;;;;5.30;4.10;;;;;;;13.87;70.67;102448.81;108701;1260;74726;-64
2024/04/12 03:35:16;;;;;;;6.40;3.90;;;;;;;13.87;70.75;102449.17;108602;1260;138316;-64
2024/04/12 03:38:24;;;;;;;5.70;3.60;;;;;;;13.86;70.72;102448.45;108759;1261;73947;-64
2024/04/12 03:40:30;;;;;;;7.30;4.10;;;;;;;13.86;70.71;102446.85;108649;1263;139619;-64
2024/04/12 03:43:02;;;;;;;4.90;3.80;;;;;;;13.86;70.72;102446.33;108679;1260;69199;-64
2024/04/12 03:45:30;;;;;;;5.70;3.90;;;;;;;13.86;70.73;102446.48;108818;1260;75239;-65
2024/04/12 03:48:04;;;;;;;5.00;3.70;;;;;;;13.86;70.66;102442.95;108550;1260;139625;-65
2024/04/12 03:50:31;;;;;;;8.20;4.10;;;;;;;13.86;70.69;102446.50;108667;1261;71995;-65
2024/04/12 03:53:04;;;;;;;6.30;3.80;;;;;;;13.85;70.65;102444.38;108705;1260;138705;-65
2024/04/12 03:55:30;;;;;;;5.50;4.10;;;;;;;13.85;70.62;102434.27;108785;1261;60344;-64
2024/04/12 03:57:57;;;;;;;6.90;3.50;;;;;;;13.81;70.59;102430.97;108745;1260;138960;-64
2024/04/12 04:00:24;;;;;;;7.30;4.00;;;;;;;13.77;70.70;102444.56;108835;1261;65526;-64
2024/04/12 04:02:51;;;;;;;5.30;4.00;;;;;;;13.78;70.80;102447.08;108800;1260;72874;-63
2024/04/12 04:05:22;;;;;;;7.10;3.60;;;;;;;13.79;70.79;102448.39;108666;1260;137988;-62
2024/04/12 04:07:52;;;;;;;5.10;3.50;;;;;;;13.80;70.83;102448.77;108790;1260;60068;-63
2024/04/12 04:10:21;;;;;;;4.80;3.60;;;;;;;13.80;70.87;102441.70;108637;1260;138305;-63
2024/04/12 04:12:51;;;;;;;6.00;3.80;;;;;;;13.80;70.78;102441.50;108751;1260;67617;-62
2024/04/12 04:15:17;;;;;;;7.40;4.30;;;;;;;13.78;70.82;102437.90;108756;1260;73403;-63
2024/04/12 04:17:47;;;;;;;8.60;4.00;;;;;;;13.79;70.97;102443.27;108641;1260;138651;-64
2024/04/12 04:20:14;;;;;;;7.90;4.40;;;;;;;13.83;70.95;102446.56;108785;1260;60315;-64
2024/04/12 04:22:40;;;;;;;8.40;4.10;;;;;;;13.86;70.96;102451.47;108643;1260;139013;-64
2024/04/12 04:25:10;;;;;;;9.90;4.00;;;;;;;13.90;70.91;102455.48;108647;1260;65234;-66
2024/04/12 04:27:37;;;;;;;4.70;3.80;;;;;;;13.93;70.87;102455.96;108778;1261;73257;-64
2024/04/12 04:30:05;;;;;;;5.60;3.50;;;;;;;13.94;70.78;102454.04;108562;1260;138856;-64
2024/04/12 04:32:32;;;;;;;6.20;4.00;;;;;;;13.94;70.79;102450.17;108797;1260;60952;-64
2024/04/12 04:35:33;;;;;;;5.70;3.90;;;;;;;13.97;70.85;102455.42;108513;1260;138574;-64
2024/04/12 04:37:52;;;;;;;8.00;3.80;;;;;;;14.02;70.90;102455.61;108725;1260;64897;-64
2024/04/12 04:40:19;;;;;;;6.60;4.00;;;;;;;14.06;70.85;102451.14;108668;1260;139847;-63
2024/04/12 04:42:49;;;;;;;4.70;3.90;;;;;;;14.08;70.77;102452.48;108754;1260;59907;-65
2024/04/12 04:45:21;;;;;;;6.90;4.50;;;;;;;14.10;70.71;102454.67;108788;1260;59833;-64
2024/04/12 04:47:48;;;;;;;8.30;4.90;;;;;;;14.12;70.82;102454.74;108685;1260;139799;-64
2024/04/12 04:50:17;;;;;;;8.00;3.90;;;;;;;14.13;70.77;102457.08;108773;1260;67621;-64
2024/04/12 04:52:44;;;;;;;10.00;4.00;;;;;;;14.16;70.75;102457.88;108499;1262;139163;-65
2024/04/12 04:55:12;;;;;;;5.80;4.20;;;;;;;14.18;70.73;102456.04;108753;1260;63663;-65
2024/04/12 04:57:43;;;;;;;7.30;3.90;;;;;;;14.22;70.69;102459.86;108762;1260;61628;-63
2024/04/12 05:00:22;;;;;;;6.50;3.90;;;;;;;14.25;70.65;102459.27;108686;1259;139420;-65
2024/04/12 05:02:53;;;;;;;8.90;3.80;;;;;;;14.28;70.66;102460.09;108777;1260;66102;-65
2024/04/12 05:05:23;;;;;;;5.60;3.70;;;;;;;14.31;70.59;102462.50;108588;1260;138163;-65
2024/04/12 05:07:52;;;;;;;4.80;3.80;;;;;;;14.34;70.49;102462.77;108699;1260;60063;-65
2024/04/12 05:10:20;;;;;;;6.00;3.90;;;;;;;14.35;70.44;102465.14;108604;1260;138725;-65
2024/04/12 05:12:49;;;;;;;8.40;4.50;;;;;;;14.39;70.44;102471.09;108816;1260;75497;-65
2024/04/12 05:18:05;;;;;;;6.30;3.70;;;;;;;14.45;70.41;102466.02;108656;1260;138137;-65
2024/04/12 05:20:42;;;;;;;9.60;4.20;;;;;;;14.48;70.28;102461.55;108713;1260;59797;-65
2024/04/12 05:23:09;;;;;;;8.30;4.00;;;;;;;14.53;70.35;102459.77;108679;1260;138695;-65
2024/04/12 05:25:35;;;;;;;8.30;4.10;;;;;;;14.56;70.16;102462.53;108737;1260;72960;-64
2024/04/12 05:28:06;;;;;;;8.50;4.30;;;;;;;14.58;70.15;102463.36;108559;1260;140412;-65
2024/04/12 05:30:36;;;;;;;7.80;3.90;;;;;;;14.61;70.06;102456.58;108737;1259;72840;-64
2024/04/12 05:33:06;;;;;;;6.80;3.80;;;;;;;14.65;70.10;102458.98;108687;1260;60170;-65
2024/04/12 05:35:34;;;;;;;7.20;3.80;;;;;;;14.67;70.04;102459.42;108612;1260;138778;-64
2024/04/12 05:38:07;;;;;;;6.20;3.60;;;;;;;14.70;69.99;102462.89;108762;1260;74556;-64
2024/04/12 05:40:40;;;;;;;4.90;4.30;;;;;;;14.72;69.87;102463.83;108622;1260;138786;-64
2024/04/12 05:43:13;;;;;;;;;;;;;;;14.75;69.93;102462.88;108754;1260;72637;-65
2024/04/12 05:45:55;;;;;;;7.80;4.10;;;;;;;14.76;69.85;102466.10;108759;1260;59692;-64
2024/04/12 05:48:22;;;;;;;4.90;3.80;;;;;;;14.76;69.79;102467.33;108669;1260;137888;-64
2024/04/12 05:50:49;;;;;;;4.70;3.40;;;;;;;14.76;69.81;102468.02;108773;1260;73969;-64
2024/04/12 05:53:18;;;;;;;6.90;3.60;;;;;;;14.77;69.72;102467.02;108651;1260;138653;-65
2024/04/12 05:55:44;;;;;;;5.70;3.80;;;;;;;14.78;69.71;102470.60;108727;1260;71489;-64
2024/04/12 05:58:15;;;;;;;6.90;3.60;;;;;;;14.81;69.70;102473.33;108559;1261;139387;-64
2024/04/12 06:00:47;;;;;;;7.30;3.90;;;;;;;14.88;69.74;102473.77;108790;1260;60023;-64
2024/04/12 06:03:14;;;;;;;5.50;3.60;;;;;;;14.95;69.62;102476.84;108713;1260;74904;-65
2024/04/12 06:05:41;;;;;;;8.70;3.80;;;;;;;15.00;69.53;102471.16;108635;1260;138517;-64
2024/04/12 06:08:08;;;;;;;8.60;4.10;;;;;;;15.05;69.51;102472.22;108755;1260;72292;-65
2024/04/12 06:10:37;;;;;;;7.00;3.80;;;;;;;15.08;69.41;102467.05;108652;1260;138785;-64
2024/04/12 06:13:06;;;;;;;6.30;3.70;;;;;;;15.15;69.34;102470.80;108776;1260;59843;-65
2024/04/12 06:15:36;;;;;;;7.30;4.00;;;;;;;15.22;69.26;102468.02;108808;1260;76213;-65
2024/04/12 06:18:08;;;;;;;5.30;4.20;;;;;;;15.31;69.11;102465.50;108583;1262;139103;-64
2024/04/12 06:20:35;;;;;;;5.70;3.90;;;;;;;15.43;69.11;102467.14;108762;1260;73868;-65
2024/04/12 06:23:09;;;;;;;6.50;4.10;;;;;;;15.60;68.96;102468.72;108650;1260;137866;-64
2024/04/12 06:25:43;;;;;;;9.60;3.90;;;;;;;15.80;68.84;102466.35;108826;1260;59868;-65
2024/04/12 06:28:14;;;;;;;6.70;3.80;;;;;;;16.01;68.74;102459.40;108679;1260;138705;-66
2024/04/12 06:30:46;;;;;;;7.20;4.10;;;;;;;16.19;68.30;102464.35;108816;1259;64574;-65
2024/04/12 06:33:33;;;;;;;5.50;3.40;;;;;;;16.33;68.02;102464.23;108757;1260;73045;-66
2024/04/12 06:36:11;;;;;;;7.90;4.40;;;;;;;16.52;67.85;102463.36;108634;1260;138345;-66
2024/04/12 06:38:39;;;;;;;11.40;5.20;;;;;;;16.63;67.40;102463.66;108793;1260;59853;-66
2024/04/12 06:41:10;;;;;;;5.30;3.90;;;;;;;16.72;67.22;102465.11;108719;1260;138089;-66
2024/04/12 06:43:37;;;;;;;8.70;4.60;;;;;;;16.83;66.87;102465.61;108827;1261;67526;-66
2024/04/12 06:46:13;;;;;;;5.60;4.40;;;;;;;16.89;66.53;102465.09;108646;1260;138470;-66
2024/04/12 06:48:42;;;;;;;6.50;4.70;;;;;;;16.89;66.28;102468.81;108805;1260;59739;-66
2024/04/12 06:51:12;;;;;;;10.20;5.40;;;;;;;16.90;65.95;102473.09;108722;1260;60107;-66
2024/04/12 06:53:44;;;;;;;10.70;5.20;;;;;;;16.86;65.51;102469.10;108596;1260;138769;-65
2024/04/12 06:56:15;;;;;;;10.00;5.50;;;;;;;16.84;65.19;102474.54;108830;1260;67037;-66
2024/04/12 06:58:43;;;;;;;9.60;5.50;;;;;;;16.75;65.05;102471.95;108607;1260;138749;-66
2024/04/12 07:01:10;;;;;;;7.50;5.00;;;;;;;16.69;64.90;102476.23;108617;1260;60129;-65
2024/04/12 07:03:40;;;;;;;6.80;4.80;;;;;;;16.63;64.91;102476.77;108827;1260;59872;-66
2024/04/12 07:06:07;;;;;;;9.00;4.20;;;;;;;16.65;65.05;102474.70;108717;1260;138126;-66
2024/04/12 07:08:34;;;;;;;10.70;5.60;;;;;;;16.71;65.01;102475.73;108823;1260;66333;-66
2024/04/12 07:11:06;;;;;;;8.20;4.90;;;;;;;16.77;65.05;102478.56;108694;1260;139113;-66
2024/04/12 07:13:33;;;;;;;6.70;4.50;;;;;;;16.85;64.78;102474.21;108772;1260;59796;-65
2024/04/12 07:16:03;;;;;;;8.00;4.30;;;;;;;16.93;64.66;102472.63;108661;1260;138368;-65
2024/04/12 07:18:30;;;;;;;9.80;4.80;;;;;;;17.02;64.51;102470.40;108833;1260;75667;-65
2024/04/12 07:21:14;;;;;;;10.90;4.40;;;;;;;17.11;64.39;102474.71;108777;1260;64872;-65
2024/04/12 07:23:49;;;;;;;9.50;4.60;;;;;;;17.27;64.15;102475.65;108603;1260;138978;-65
2024/04/12 07:26:25;;;;;;;11.30;4.80;;;;;;;17.44;63.94;102478.36;108804;1260;60037;-65
2024/04/12 07:28:58;;;;;;;7.70;5.00;;;;;;;17.52;63.29;102476.08;108683;1260;146269;-64
2024/04/12 07:31:34;;;;;;;11.40;6.80;;;;;;;17.62;63.21;102480.56;108709;1261;76642;-65
2024/04/12 07:34:01;;;;;;;5.60;4.30;;;;;;;17.76;62.89;102472.20;108714;1260;138778;-65
2024/04/12 07:36:30;;;;;;;6.90;4.20;;;;;;;17.86;62.79;102473.70;108806;1260;73585;-65
2024/04/12 07:39:03;;;;;;;6.40;4.50;;;;;;;18.00;62.43;102475.23;108763;1260;59903;-65
2024/04/12 07:41:39;;;;;;;6.50;4.30;;;;;;;18.08;61.97;102474.00;108706;1260;138531;-65
2024/04/12 07:44:05;;;;;;;5.40;3.50;;;;;;;18.24;62.09;102481.27;108690;1260;75662;-66
2024/04/12 07:46:35;;;;;;;6.30;4.10;;;;;;;18.45;61.75;102477.24;108703;1260;138482;-65
2024/04/12 07:49:02;;;;;;;6.20;3.80;;;;;;;18.66;61.58;102478.73;108783;1260;71134;-66
2024/04/12 07:51:31;;;;;;;7.70;3.90;;;;;;;18.89;61.30;102477.21;108807;1260;60144;-65
2024/04/12 07:54:03;;;;;;;8.50;3.70;;;;;;;19.10;60.80;102479.20;108703;1260;138238;-65
2024/04/12 07:56:37;;;;;;;4.30;2.70;;;;;;;19.19;59.96;102480.25;108768;1260;75548;-65
2024/04/12 07:59:25;;;;;;;7.30;3.20;;;;;;;19.21;59.25;102477.61;108614;1261;138109;-64
2024/04/12 08:01:52;;;;;;;5.60;2.60;;;;;;;19.25;59.08;102479.10;108749;1260;73593;-65
2024/04/12 08:04:36;;;;;;;4.50;3.00;;;;;;;19.35;58.60;102481.58;108662;1260;139189;-65
2024/04/12 08:07:13;;;;;;;5.70;3.30;;;;;;;19.37;58.10;102481.77;108860;1260;60533;-64
2024/04/12 08:09:44;;;;;;;4.90;2.90;;;;;;;19.50;58.42;102480.20;108822;1260;75412;-65
2024/04/12 08:12:31;;;;;;;4.20;3.10;;;;;;;19.68;57.68;102477.80;108694;1260;138430;-65
2024/04/12 08:15:06;;;;;;;6.60;3.20;;;;;;;19.72;57.09;102474.50;108817;1260;71489;-65
2024/04/12 08:17:39;;;;;;;4.40;2.90;;;;;;;19.71;56.71;102474.85;108678;1260;148487;-65
2024/04/12 08:20:16;;;;;;;8.00;2.80;;;;;;;19.77;56.64;102468.02;108760;1260;60016;-65
2024/04/12 08:22:43;;;;;;;4.80;2.50;;;;;;;19.92;56.56;102472.48;108638;1260;138338;-65
2024/04/12 08:25:09;;;;;;;6.00;2.30;;;;;;;20.11;56.52;102468.84;108813;1260;66446;-65
2024/04/12 08:27:36;;;;;;;5.40;2.10;;;;;;;20.34;56.28;102467.87;108675;1262;72794;-65
2024/04/12 08:30:13;;;;;;;4.30;2.20;;;;;;;20.50;55.40;102470.55;108690;1260;138141;-65
2024/04/12 08:32:48;;;;;;;4.70;2.40;;;;;;;20.53;55.11;102470.76;108823;1260;60956;-65
2024/04/12 08:35:19;;;;;;;5.30;2.20;;;;;;;20.59;54.92;102466.55;108699;1260;138485;-64
2024/04/12 08:37:47;;;;;;;6.00;2.20;;;;;;;20.65;54.67;102468.06;108815;1260;64718;-65
2024/04/12 08:40:19;;;;;;;4.40;2.20;;;;;;;20.75;54.46;102467.98;108672;1260;138596;-65
2024/04/12 08:42:45;;;;;;;7.60;2.20;;;;;;;20.79;53.81;102464.64;108784;1260;59795;-65
2024/04/12 08:45:17;;;;;;;5.80;2.20;;;;;;;20.67;53.58;102466.84;108699;1260;59769;-65
2024/04/12 08:48:04;;;;;;;5.80;2.60;;;;;;;20.50;53.28;102469.65;108607;1260;138014;-65
2024/04/12 08:50:31;;;;;;;3.80;1.90;;;;;;;20.32;53.00;102466.95;108712;1261;66754;-65
2024/04/12 08:52:58;;;;;;;6.40;2.80;;;;;;;20.16;52.98;102468.89;108680;1260;137955;-65
2024/04/12 08:55:28;;;;;;;6.20;2.40;;;;;;;19.98;52.75;102466.88;108810;1260;59822;-66
2024/04/12 08:58:02;;;;;;;6.30;2.00;;;;;;;19.85;52.82;102470.62;108649;1261;61460;-66
2024/04/12 09:00:32;;;;;;;3.30;1.90;;;;;;;19.88;52.97;102464.60;108728;1261;75983;-65
2024/04/12 09:03:02;;;;;;;4.00;2.30;;;;;;;19.98;52.87;102462.23;108692;1260;66857;-65
2024/04/12 09:05:30;;;;;;;5.50;2.20;;;;;;;20.09;52.91;102460.24;108683;1260;138471;-65
2024/04/12 09:07:59;;;;;;;4.20;1.70;;;;;;;20.20;52.76;102460.74;108717;1260;59776;-66
2024/04/12 09:10:27;;;;;;;3.90;1.90;;;;;;;20.25;52.73;102459.55;108656;1260;139114;-66
2024/04/12 09:12:54;;;;;;;4.10;1.90;;;;;;;20.36;52.55;102455.42;108717;1260;74485;-66
2024/04/12 09:15:24;;;;;;;3.80;1.60;;;;;;;20.50;52.53;102452.36;108811;1260;66991;-66
2024/04/12 09:20:40;;;;;;;3.00;1.80;;;;;;;20.42;51.24;102446.90;108825;1260;59882;-66
2024/04/12 09:23:19;;;;;;;4.90;1.70;;;;;;;20.31;51.15;102451.26;108692;1260;138703;-66
2024/04/12 09:25:54;;;;;;;2.20;1.80;;;;;;;20.29;51.31;102451.05;108803;1260;75140;-66
2024/04/12 09:28:22;;;;;;;3.80;1.90;;;;;;;20.37;51.42;102453.27;108700;1260;138159;-66
2024/04/12 09:33:34;;;;;;;5.20;2.20;;;;;;;20.65;50.63;102446.13;108801;1259;59650;-66
2024/04/12 09:36:04;;;;;;;5.60;1.90;;;;;;;20.75;50.45;102445.86;108593;1260;137851;-66
2024/04/12 09:38:32;;;;;;;3.50;1.70;;;;;;;20.91;50.37;102444.60;108800;1260;75687;-66
2024/04/12 09:41:13;;;;;;;3.30;1.50;;;;;;;21.02;49.99;102445.77;108688;1260;139794;-66
2024/04/12 09:43:47;;;;;;;5.20;1.40;;;;;;;21.06;49.94;102444.17;108689;1260;72136;-65
2024/04/12 09:46:22;;;;;;;3.10;1.20;;;;;;;21.15;49.42;102439.98;108616;1260;139511;-66
2024/04/12 10:39:14;;;;;;;4.70;1.60;;;;;;;21.73;46.03;102448.09;108804;1260;73704;-66
2024/04/12 10:41:41;;;;;;;5.80;1.70;;;;;;;21.50;45.65;102444.89;108673;1260;137833;-66
2024/04/12 10:44:10;;;;;;;3.00;1.50;;;;;;;21.22;45.85;102446.65;108811;1260;60087;-66
2024/04/12 10:46:37;;;;;;;6.40;1.90;;;;;;;21.08;46.27;102445.46;108675;1260;138175;-66
2024/04/12 10:49:03;;;;;;;3.20;1.80;;;;;;;21.13;46.35;102440.50;108761;1260;66490;-66
2024/04/12 10:51:31;;;;;;;3.90;1.60;;;;;;;21.26;46.59;102439.70;108798;1260;72584;-66
2024/04/12 10:53:58;;;;;;;4.30;1.80;;;;;;;21.43;46.56;102440.38;108690;1260;138436;-65
2024/04/12 10:56:29;;;;;;;3.90;2.10;;;;;;;21.52;46.26;102439.03;108801;1261;61441;-65
2024/04/12 10:58:59;;;;;;;3.80;1.70;;;;;;;21.53;46.03;102438.14;108685;1260;138407;-65
2024/04/12 11:01:26;;;;;;;4.70;1.60;;;;;;;21.49;45.95;102435.25;108717;1260;65086;-66
2024/04/12 11:03:59;;;;;;;4.10;2.10;;;;;;;21.48;45.96;102427.92;108788;1260;71561;-65
2024/04/12 11:06:34;;;;;;;4.40;1.80;;;;;;;21.66;46.26;102427.86;108674;1260;137694;-65
2024/04/12 11:09:04;;;;;;;5.00;1.90;;;;;;;21.88;46.12;102421.54;108701;1260;60600;-66
2024/04/12 11:11:34;;;;;;;3.40;1.90;;;;;;;21.99;45.76;102420.52;108687;1260;137789;-65
2024/04/12 11:14:01;;;;;;;3.70;1.60;;;;;;;22.05;45.68;102415.35;108816;1260;67605;-65
2024/04/12 11:33:04;;;;;;;3.10;1.60;;;;;;;22.54;44.82;102398.70;108804;1260;59987;-65
2024/04/12 11:35:31;;;;;;;5.90;1.70;;;;;;;22.52;44.64;102398.35;108711;1260;138973;-65
2024/04/12 11:37:58;;;;;;;3.90;1.70;;;;;;;22.34;44.43;102396.70;108798;1260;74424;-65
2024/04/12 11:40:25;;;;;;;4.00;1.70;;;;;;;22.13;44.42;102393.40;108707;1260;138439;-65
2024/04/12 11:42:56;;;;;;;3.30;1.30;;;;;;;21.91;44.36;102390.45;108823;1260;73886;-65
2024/04/12 11:45:25;;;;;;;2.40;1.20;;;;;;;21.69;44.29;102388.40;108692;1260;59846;-65
2024/04/12 11:47:51;;;;;;;5.20;1.60;;;;;;;21.51;44.33;102385.98;108627;1259;149332;-65
2024/04/12 11:50:21;;;;;;;1.90;1.30;;;;;;;21.46;44.46;102381.66;108820;1260;73957;-64
2024/04/12 11:52:54;;;;;;;5.50;1.60;;;;;;;21.50;44.58;102382.21;108601;1260;138611;-65
2024/04/12 11:55:21;;;;;;;3.00;1.40;;;;;;;21.45;44.42;102381.99;108792;1260;71366;-65
2024/04/12 11:57:47;;;;;;;6.60;1.30;;;;;;;21.34;44.49;102367.62;108803;1260;60363;-65
2024/04/12 12:00:15;;;;;;;1.90;1.40;;;;;;;21.22;44.81;102366.84;108558;1262;138411;-65
2024/04/12 12:02:42;;;;;;;3.50;1.20;;;;;;;21.19;44.83;102368.79;108706;1262;73975;-65
2024/04/12 12:05:09;;;;;;;9.00;1.90;;;;;;;21.18;44.92;102370.73;108541;1264;138687;-65
2024/04/12 12:07:36;;;;;;;7.30;3.40;;;;;;;21.04;44.77;102363.86;108699;1262;72921;-64
2024/04/12 12:10:05;;;;;;;6.50;2.00;;;;;;;20.84;44.80;102356.02;108589;1262;60111;-65
2024/04/12 12:12:37;;;;;;;4.50;1.70;;;;;;;20.71;45.16;102352.17;108567;1262;138511;-65
2024/04/12 12:15:08;;;;;;;4.00;1.90;;;;;;;20.74;45.40;102347.56;108682;1262;76625;-65
2024/04/12 12:17:35;;;;;;;4.20;2.30;;;;;;;20.92;45.62;102341.46;108569;1262;138743;-65
2024/04/12 12:20:04;;;;;;;3.40;1.70;;;;;;;21.06;45.45;102332.82;108699;1262;72396;-64
2024/04/12 12:22:31;;;;;;;3.00;1.70;;;;;;;21.19;45.25;102333.96;108580;1262;138088;-65
2024/04/12 12:25:00;;;;;;;2.30;1.50;;;;;;;21.23;45.06;102332.20;108728;1262;60629;-65
2024/04/12 12:27:28;;;;;;;3.30;1.70;;;;;;;21.26;44.91;102323.83;108717;1260;75405;-65
2024/04/12 12:29:54;;;;;;;2.80;1.60;;;;;;;21.31;44.95;102321.35;108588;1262;138155;-65
2024/04/12 12:32:25;;;;;;;1.90;1.30;;;;;;;21.40;44.87;102305.34;108688;1262;73001;-66
2024/04/12 12:34:53;;;;;;;3.40;1.40;;;;;;;21.50;44.81;102297.19;108561;1262;139366;-64
2024/04/12 12:37:19;;;;;;;2.90;1.20;;;;;;;21.73;44.88;102295.68;108739;1262;59691;-64
2024/04/12 12:39:47;;;;;;;2.80;1.30;;;;;;;21.98;44.48;102295.75;108676;1262;75855;-65
2024/04/12 12:42:16;;;;;;;3.40;1.40;;;;;;;22.15;44.16;102292.91;108576;1262;138368;-65
2024/04/12 12:44:43;;;;;;;5.40;1.30;;;;;;;22.35;44.24;102279.02;108650;1262;73652;-65